sensor_id;sensor_type;location;lat;lon;timestamp;P1;durP1;ratioP1;P2;durP2;ratioP2
19891;SDS011;10108;50.142;8.724;2024-03-08T00:01:48;27.27;;;14.02;;
19891;SDS011;10108;50.142;8.724;2024-03-08T00:04:14;24.42;;;13.77;;
19891;SDS011;10108;50.142;8.724;2024-03-08T00:06:41;26.70;;;14.30;;
19891;SDS011;10108;50.142;8.724;2024-03-08T00:09:09;28.35;;;15.05;;
19891;SDS011;10108;50.142;8.724;2024-03-08T00:11:36;24.92;;;14.05;;
19891;SDS011;10108;50.142;8.724;2024-03-08T00:14:02;27.23;;;14.90;;
19891;SDS011;10108;50.142;8.724;2024-03-08T00:16:32;29.42;;;14.73;;
19891;SDS011;10108;50.142;8.724;2024-03-08T00:18:59;26.95;;;14.55;;
19891;SDS011;10108;50.142;8.724;2024-03-08T00:21:26;30.35;;;14.65;;
19891;SDS011;10108;50.142;8.724;2024-03-08T00:23:55;27.13;;;14.68;;
19891;SDS011;10108;50.142;8.724;2024-03-08T00:26:21;32.58;;;14.88;;
19891;SDS011;10108;50.142;8.724;2024-03-08T00:28:48;30.50;;;15.52;;
19891;SDS011;10108;50.142;8.724;2024-03-08T00:31:14;26.98;;;15.00;;
19891;SDS011;10108;50.142;8.724;2024-03-08T00:33:43;28.00;;;14.43;;
19891;SDS011;10108;50.142;8.724;2024-03-08T00:36:10;28.55;;;14.50;;
19891;SDS011;10108;50.142;8.724;2024-03-08T00:38:36;27.17;;;14.88;;
19891;SDS011;10108;50.142;8.724;2024-03-08T00:41:02;27.95;;;14.15;;
19891;SDS011;10108;50.142;8.724;2024-03-08T00:43:29;29.10;;;15.27;;
19891;SDS011;10108;50.142;8.724;2024-03-08T00:45:58;29.45;;;15.15;;
19891;SDS011;10108;50.142;8.724;2024-03-08T00:48:24;25.00;;;14.35;;
19891;SDS011;10108;50.142;8.724;2024-03-08T00:50:51;32.03;;;15.70;;
19891;SDS011;10108;50.142;8.724;2024-03-08T00:53:17;31.30;;;15.68;;
19891;SDS011;10108;50.142;8.724;2024-03-08T00:55:43;27.75;;;15.15;;
19891;SDS011;10108;50.142;8.724;2024-03-08T00:58:12;28.85;;;14.65;;
19891;SDS011;10108;50.142;8.724;2024-03-08T01:00:39;30.90;;;14.98;;
19891;SDS011;10108;50.142;8.724;2024-03-08T01:03:05;27.45;;;14.60;;
19891;SDS011;10108;50.142;8.724;2024-03-08T01:05:32;27.60;;;14.95;;
19891;SDS011;10108;50.142;8.724;2024-03-08T01:08:01;28.10;;;13.93;;
19891;SDS011;10108;50.142;8.724;2024-03-08T01:10:28;28.95;;;14.80;;
19891;SDS011;10108;50.142;8.724;2024-03-08T01:12:55;28.85;;;14.43;;
19891;SDS011;10108;50.142;8.724;2024-03-08T01:15:23;28.52;;;15.40;;
19891;SDS011;10108;50.142;8.724;2024-03-08T01:17:49;28.98;;;14.85;;
19891;SDS011;10108;50.142;8.724;2024-03-08T01:20:16;28.63;;;14.77;;
19891;SDS011;10108;50.142;8.724;2024-03-08T01:22:43;26.33;;;14.25;;
19891;SDS011;10108;50.142;8.724;2024-03-08T01:25:10;28.15;;;14.57;;
19891;SDS011;10108;50.142;8.724;2024-03-08T01:27:36;31.73;;;15.32;;
19891;SDS011;10108;50.142;8.724;2024-03-08T01:30:03;27.98;;;14.88;;
19891;SDS011;10108;50.142;8.724;2024-03-08T01:32:29;29.23;;;14.98;;
19891;SDS011;10108;50.142;8.724;2024-03-08T01:34:56;28.80;;;14.77;;
19891;SDS011;10108;50.142;8.724;2024-03-08T01:37:22;28.30;;;15.20;;
19891;SDS011;10108;50.142;8.724;2024-03-08T01:39:48;28.27;;;14.85;;
19891;SDS011;10108;50.142;8.724;2024-03-08T01:42:15;27.60;;;14.77;;
19891;SDS011;10108;50.142;8.724;2024-03-08T01:44:43;24.42;;;14.30;;
19891;SDS011;10108;50.142;8.724;2024-03-08T01:47:10;26.70;;;14.43;;
19891;SDS011;10108;50.142;8.724;2024-03-08T01:49:37;27.25;;;14.82;;
19891;SDS011;10108;50.142;8.724;2024-03-08T01:52:03;27.35;;;14.82;;
19891;SDS011;10108;50.142;8.724;2024-03-08T01:54:30;28.67;;;15.25;;
19891;SDS011;10108;50.142;8.724;2024-03-08T01:56:57;29.98;;;14.95;;
19891;SDS011;10108;50.142;8.724;2024-03-08T01:59:25;29.75;;;14.60;;
19891;SDS011;10108;50.142;8.724;2024-03-08T02:01:54;29.48;;;15.40;;
19891;SDS011;10108;50.142;8.724;2024-03-08T02:04:21;28.30;;;15.13;;
19891;SDS011;10108;50.142;8.724;2024-03-08T02:06:48;31.48;;;15.50;;
19891;SDS011;10108;50.142;8.724;2024-03-08T02:09:14;27.60;;;14.80;;
19891;SDS011;10108;50.142;8.724;2024-03-08T02:11:41;30.48;;;15.00;;
19891;SDS011;10108;50.142;8.724;2024-03-08T02:14:07;29.73;;;15.35;;
19891;SDS011;10108;50.142;8.724;2024-03-08T02:16:33;28.55;;;15.32;;
19891;SDS011;10108;50.142;8.724;2024-03-08T02:19:00;28.50;;;15.05;;
19891;SDS011;10108;50.142;8.724;2024-03-08T02:21:26;29.98;;;14.60;;
19891;SDS011;10108;50.142;8.724;2024-03-08T02:23:52;27.38;;;14.90;;
19891;SDS011;10108;50.142;8.724;2024-03-08T02:26:19;27.60;;;15.32;;
19891;SDS011;10108;50.142;8.724;2024-03-08T02:28:45;30.92;;;15.30;;
19891;SDS011;10108;50.142;8.724;2024-03-08T02:31:12;26.40;;;15.27;;
19891;SDS011;10108;50.142;8.724;2024-03-08T02:33:38;29.27;;;14.95;;
19891;SDS011;10108;50.142;8.724;2024-03-08T02:36:05;33.25;;;15.25;;
19891;SDS011;10108;50.142;8.724;2024-03-08T02:38:32;30.50;;;15.57;;
19891;SDS011;10108;50.142;8.724;2024-03-08T02:40:58;29.40;;;15.23;;
19891;SDS011;10108;50.142;8.724;2024-03-08T02:43:25;29.52;;;15.30;;
19891;SDS011;10108;50.142;8.724;2024-03-08T02:45:51;27.85;;;15.68;;
19891;SDS011;10108;50.142;8.724;2024-03-08T02:48:20;27.63;;;15.15;;
19891;SDS011;10108;50.142;8.724;2024-03-08T02:50:47;30.83;;;15.50;;
19891;SDS011;10108;50.142;8.724;2024-03-08T02:53:13;31.40;;;16.17;;
19891;SDS011;10108;50.142;8.724;2024-03-08T02:55:40;32.97;;;15.68;;
19891;SDS011;10108;50.142;8.724;2024-03-08T02:58:07;28.27;;;15.65;;
19891;SDS011;10108;50.142;8.724;2024-03-08T03:00:37;30.42;;;16.35;;
19891;SDS011;10108;50.142;8.724;2024-03-08T03:03:04;32.38;;;16.15;;
19891;SDS011;10108;50.142;8.724;2024-03-08T03:05:32;29.15;;;15.77;;
19891;SDS011;10108;50.142;8.724;2024-03-08T03:07:59;30.02;;;14.90;;
19891;SDS011;10108;50.142;8.724;2024-03-08T03:10:25;32.25;;;15.63;;
19891;SDS011;10108;50.142;8.724;2024-03-08T03:12:52;27.77;;;14.60;;
19891;SDS011;10108;50.142;8.724;2024-03-08T03:15:18;31.02;;;16.27;;
19891;SDS011;10108;50.142;8.724;2024-03-08T03:17:45;31.67;;;15.77;;
19891;SDS011;10108;50.142;8.724;2024-03-08T03:20:18;31.30;;;16.08;;
19891;SDS011;10108;50.142;8.724;2024-03-08T03:22:52;31.85;;;16.52;;
19891;SDS011;10108;50.142;8.724;2024-03-08T03:25:19;31.17;;;16.38;;
19891;SDS011;10108;50.142;8.724;2024-03-08T03:27:54;32.13;;;16.52;;
19891;SDS011;10108;50.142;8.724;2024-03-08T03:30:23;30.17;;;16.35;;
19891;SDS011;10108;50.142;8.724;2024-03-08T03:32:52;29.38;;;16.15;;
19891;SDS011;10108;50.142;8.724;2024-03-08T03:35:20;34.15;;;16.80;;
19891;SDS011;10108;50.142;8.724;2024-03-08T03:37:48;32.00;;;16.45;;
19891;SDS011;10108;50.142;8.724;2024-03-08T03:40:30;29.50;;;16.13;;
19891;SDS011;10108;50.142;8.724;2024-03-08T03:42:56;32.97;;;15.68;;
19891;SDS011;10108;50.142;8.724;2024-03-08T03:45:23;31.90;;;17.10;;
19891;SDS011;10108;50.142;8.724;2024-03-08T03:47:50;29.33;;;15.95;;
19891;SDS011;10108;50.142;8.724;2024-03-08T03:50:18;32.63;;;16.35;;
19891;SDS011;10108;50.142;8.724;2024-03-08T03:52:50;30.05;;;15.60;;
19891;SDS011;10108;50.142;8.724;2024-03-08T03:55:17;31.33;;;16.65;;
19891;SDS011;10108;50.142;8.724;2024-03-08T03:57:43;32.95;;;16.35;;
19891;SDS011;10108;50.142;8.724;2024-03-08T04:00:11;31.58;;;16.77;;
19891;SDS011;10108;50.142;8.724;2024-03-08T04:02:41;33.05;;;18.08;;
19891;SDS011;10108;50.142;8.724;2024-03-08T04:05:09;33.15;;;17.02;;
19891;SDS011;10108;50.142;8.724;2024-03-08T04:07:36;29.40;;;15.75;;
19891;SDS011;10108;50.142;8.724;2024-03-08T04:10:03;32.35;;;16.63;;
19891;SDS011;10108;50.142;8.724;2024-03-08T04:12:35;31.83;;;16.77;;
19891;SDS011;10108;50.142;8.724;2024-03-08T04:15:01;30.75;;;16.35;;
19891;SDS011;10108;50.142;8.724;2024-03-08T04:17:28;31.02;;;17.23;;
19891;SDS011;10108;50.142;8.724;2024-03-08T04:19:56;31.10;;;16.85;;
19891;SDS011;10108;50.142;8.724;2024-03-08T04:22:22;33.58;;;17.80;;
19891;SDS011;10108;50.142;8.724;2024-03-08T04:24:49;33.63;;;17.05;;
19891;SDS011;10108;50.142;8.724;2024-03-08T04:27:15;30.92;;;17.38;;
19891;SDS011;10108;50.142;8.724;2024-03-08T04:29:41;32.53;;;16.95;;
19891;SDS011;10108;50.142;8.724;2024-03-08T04:32:08;33.05;;;17.35;;
19891;SDS011;10108;50.142;8.724;2024-03-08T04:34:36;34.78;;;17.25;;
19891;SDS011;10108;50.142;8.724;2024-03-08T04:37:03;30.98;;;17.27;;
19891;SDS011;10108;50.142;8.724;2024-03-08T04:39:31;32.33;;;17.33;;
19891;SDS011;10108;50.142;8.724;2024-03-08T04:41:59;33.78;;;17.10;;
19891;SDS011;10108;50.142;8.724;2024-03-08T04:44:30;31.35;;;17.02;;
19891;SDS011;10108;50.142;8.724;2024-03-08T04:46:57;33.55;;;17.05;;
19891;SDS011;10108;50.142;8.724;2024-03-08T04:49:23;33.53;;;17.85;;
19891;SDS011;10108;50.142;8.724;2024-03-08T04:51:50;30.73;;;16.77;;
19891;SDS011;10108;50.142;8.724;2024-03-08T04:54:16;33.65;;;16.92;;
19891;SDS011;10108;50.142;8.724;2024-03-08T04:56:43;35.72;;;17.23;;
19891;SDS011;10108;50.142;8.724;2024-03-08T04:59:09;33.88;;;17.00;;
19891;SDS011;10108;50.142;8.724;2024-03-08T05:01:35;31.23;;;17.00;;
19891;SDS011;10108;50.142;8.724;2024-03-08T05:04:04;33.15;;;17.10;;
19891;SDS011;10108;50.142;8.724;2024-03-08T05:06:31;32.00;;;16.52;;
19891;SDS011;10108;50.142;8.724;2024-03-08T05:08:57;32.28;;;17.08;;
19891;SDS011;10108;50.142;8.724;2024-03-08T05:11:24;31.65;;;17.10;;
19891;SDS011;10108;50.142;8.724;2024-03-08T05:13:50;32.22;;;17.30;;
19891;SDS011;10108;50.142;8.724;2024-03-08T05:16:16;34.42;;;17.60;;
19891;SDS011;10108;50.142;8.724;2024-03-08T05:18:43;34.00;;;17.63;;
19891;SDS011;10108;50.142;8.724;2024-03-08T05:21:09;31.67;;;17.42;;
19891;SDS011;10108;50.142;8.724;2024-03-08T05:23:36;34.70;;;17.23;;
19891;SDS011;10108;50.142;8.724;2024-03-08T05:26:04;30.52;;;16.83;;
19891;SDS011;10108;50.142;8.724;2024-03-08T05:28:30;31.70;;;17.05;;
19891;SDS011;10108;50.142;8.724;2024-03-08T05:30:57;34.95;;;17.33;;
19891;SDS011;10108;50.142;8.724;2024-03-08T05:33:23;32.10;;;16.95;;
19891;SDS011;10108;50.142;8.724;2024-03-08T05:35:49;33.13;;;17.75;;
19891;SDS011;10108;50.142;8.724;2024-03-08T05:38:15;30.60;;;16.77;;
19891;SDS011;10108;50.142;8.724;2024-03-08T05:40:42;33.55;;;17.83;;
19891;SDS011;10108;50.142;8.724;2024-03-08T05:43:09;36.17;;;18.08;;
19891;SDS011;10108;50.142;8.724;2024-03-08T05:45:35;35.72;;;18.05;;
19891;SDS011;10108;50.142;8.724;2024-03-08T05:48:01;34.53;;;18.05;;
19891;SDS011;10108;50.142;8.724;2024-03-08T05:50:27;32.70;;;17.48;;
19891;SDS011;10108;50.142;8.724;2024-03-08T05:52:54;33.60;;;17.42;;
19891;SDS011;10108;50.142;8.724;2024-03-08T05:55:21;35.38;;;18.05;;
19891;SDS011;10108;50.142;8.724;2024-03-08T05:57:48;34.95;;;17.15;;
19891;SDS011;10108;50.142;8.724;2024-03-08T06:00:15;31.50;;;17.40;;
19891;SDS011;10108;50.142;8.724;2024-03-08T06:02:41;34.75;;;17.65;;
19891;SDS011;10108;50.142;8.724;2024-03-08T06:05:09;32.92;;;16.95;;
19891;SDS011;10108;50.142;8.724;2024-03-08T06:07:36;37.63;;;18.23;;
19891;SDS011;10108;50.142;8.724;2024-03-08T06:10:09;36.00;;;18.20;;
19891;SDS011;10108;50.142;8.724;2024-03-08T06:12:36;34.75;;;17.83;;
19891;SDS011;10108;50.142;8.724;2024-03-08T06:15:10;33.45;;;17.80;;
19891;SDS011;10108;50.142;8.724;2024-03-08T06:17:40;39.65;;;19.48;;
19891;SDS011;10108;50.142;8.724;2024-03-08T06:20:07;36.58;;;18.60;;
19891;SDS011;10108;50.142;8.724;2024-03-08T06:22:41;40.85;;;18.13;;
19891;SDS011;10108;50.142;8.724;2024-03-08T06:25:08;36.53;;;18.17;;
19891;SDS011;10108;50.142;8.724;2024-03-08T06:27:36;38.50;;;18.40;;
19891;SDS011;10108;50.142;8.724;2024-03-08T06:30:03;35.33;;;18.23;;
19891;SDS011;10108;50.142;8.724;2024-03-08T06:32:30;35.00;;;18.33;;
19891;SDS011;10108;50.142;8.724;2024-03-08T06:35:02;37.22;;;18.33;;
19891;SDS011;10108;50.142;8.724;2024-03-08T06:37:34;39.00;;;18.02;;
19891;SDS011;10108;50.142;8.724;2024-03-08T06:40:01;35.58;;;17.88;;
19891;SDS011;10108;50.142;8.724;2024-03-08T06:42:29;38.08;;;18.50;;
19891;SDS011;10108;50.142;8.724;2024-03-08T06:44:59;38.00;;;18.98;;
19891;SDS011;10108;50.142;8.724;2024-03-08T06:47:30;34.95;;;17.48;;
19891;SDS011;10108;50.142;8.724;2024-03-08T06:49:57;36.33;;;18.55;;
19891;SDS011;10108;50.142;8.724;2024-03-08T06:52:24;36.28;;;17.75;;
19891;SDS011;10108;50.142;8.724;2024-03-08T06:54:50;36.78;;;17.70;;
19891;SDS011;10108;50.142;8.724;2024-03-08T06:57:18;33.85;;;18.65;;
19891;SDS011;10108;50.142;8.724;2024-03-08T06:59:48;35.22;;;18.55;;
19891;SDS011;10108;50.142;8.724;2024-03-08T07:02:15;33.75;;;18.08;;
19891;SDS011;10108;50.142;8.724;2024-03-08T07:04:41;34.75;;;18.08;;
19891;SDS011;10108;50.142;8.724;2024-03-08T07:07:08;30.65;;;17.25;;
19891;SDS011;10108;50.142;8.724;2024-03-08T07:09:37;40.00;;;19.55;;
19891;SDS011;10108;50.142;8.724;2024-03-08T07:12:03;30.77;;;17.55;;
19891;SDS011;10108;50.142;8.724;2024-03-08T07:14:30;32.08;;;16.90;;
19891;SDS011;10108;50.142;8.724;2024-03-08T07:16:59;34.08;;;17.98;;
19891;SDS011;10108;50.142;8.724;2024-03-08T07:19:25;32.22;;;18.08;;
19891;SDS011;10108;50.142;8.724;2024-03-08T07:21:51;32.70;;;16.27;;
19891;SDS011;10108;50.142;8.724;2024-03-08T07:24:18;33.92;;;17.90;;
19891;SDS011;10108;50.142;8.724;2024-03-08T07:27:04;33.60;;;17.55;;
19891;SDS011;10108;50.142;8.724;2024-03-08T07:29:33;35.42;;;18.40;;
19891;SDS011;10108;50.142;8.724;2024-03-08T07:32:00;32.58;;;17.30;;
19891;SDS011;10108;50.142;8.724;2024-03-08T07:34:47;33.08;;;18.20;;
19891;SDS011;10108;50.142;8.724;2024-03-08T07:37:14;34.47;;;18.00;;
19891;SDS011;10108;50.142;8.724;2024-03-08T07:39:41;39.45;;;18.02;;
19891;SDS011;10108;50.142;8.724;2024-03-08T07:42:07;33.03;;;17.88;;
19891;SDS011;10108;50.142;8.724;2024-03-08T07:44:33;33.15;;;18.25;;
19891;SDS011;10108;50.142;8.724;2024-03-08T07:47:00;30.77;;;17.50;;
19891;SDS011;10108;50.142;8.724;2024-03-08T07:49:26;31.02;;;17.52;;
19891;SDS011;10108;50.142;8.724;2024-03-08T07:51:52;32.55;;;18.05;;
19891;SDS011;10108;50.142;8.724;2024-03-08T07:54:19;34.28;;;17.27;;
19891;SDS011;10108;50.142;8.724;2024-03-08T07:56:45;36.95;;;17.83;;
19891;SDS011;10108;50.142;8.724;2024-03-08T07:59:12;37.33;;;18.15;;
19891;SDS011;10108;50.142;8.724;2024-03-08T08:01:38;30.85;;;17.30;;
19891;SDS011;10108;50.142;8.724;2024-03-08T08:04:05;33.42;;;17.30;;
19891;SDS011;10108;50.142;8.724;2024-03-08T08:06:31;32.03;;;16.95;;
19891;SDS011;10108;50.142;8.724;2024-03-08T08:08:59;33.03;;;16.58;;
19891;SDS011;10108;50.142;8.724;2024-03-08T08:11:26;35.15;;;17.98;;
19891;SDS011;10108;50.142;8.724;2024-03-08T08:13:56;36.33;;;17.13;;
19891;SDS011;10108;50.142;8.724;2024-03-08T08:16:23;32.80;;;17.83;;
19891;SDS011;10108;50.142;8.724;2024-03-08T08:18:51;33.03;;;17.33;;
19891;SDS011;10108;50.142;8.724;2024-03-08T08:21:18;32.08;;;17.67;;
19891;SDS011;10108;50.142;8.724;2024-03-08T08:23:45;32.80;;;18.50;;
19891;SDS011;10108;50.142;8.724;2024-03-08T08:26:12;34.28;;;17.98;;
19891;SDS011;10108;50.142;8.724;2024-03-08T08:28:38;35.50;;;18.02;;
19891;SDS011;10108;50.142;8.724;2024-03-08T08:31:06;33.38;;;17.67;;
19891;SDS011;10108;50.142;8.724;2024-03-08T08:33:34;32.03;;;17.50;;
19891;SDS011;10108;50.142;8.724;2024-03-08T08:36:01;33.50;;;17.88;;
19891;SDS011;10108;50.142;8.724;2024-03-08T08:38:27;34.08;;;17.77;;
19891;SDS011;10108;50.142;8.724;2024-03-08T08:40:53;32.55;;;17.85;;
19891;SDS011;10108;50.142;8.724;2024-03-08T08:43:20;35.95;;;18.02;;
19891;SDS011;10108;50.142;8.724;2024-03-08T08:45:49;31.73;;;17.17;;
19891;SDS011;10108;50.142;8.724;2024-03-08T08:48:19;34.85;;;17.75;;
19891;SDS011;10108;50.142;8.724;2024-03-08T08:50:45;29.08;;;16.77;;
19891;SDS011;10108;50.142;8.724;2024-03-08T08:53:12;32.42;;;17.25;;
19891;SDS011;10108;50.142;8.724;2024-03-08T08:55:40;32.47;;;17.27;;
19891;SDS011;10108;50.142;8.724;2024-03-08T08:58:06;33.15;;;17.20;;
19891;SDS011;10108;50.142;8.724;2024-03-08T09:00:33;30.98;;;16.20;;
19891;SDS011;10108;50.142;8.724;2024-03-08T09:03:00;28.92;;;16.52;;
19891;SDS011;10108;50.142;8.724;2024-03-08T09:05:28;32.83;;;17.00;;
19891;SDS011;10108;50.142;8.724;2024-03-08T09:07:54;30.15;;;17.08;;
19891;SDS011;10108;50.142;8.724;2024-03-08T09:10:21;30.30;;;16.35;;
19891;SDS011;10108;50.142;8.724;2024-03-08T09:12:47;39.90;;;17.50;;
19891;SDS011;10108;50.142;8.724;2024-03-08T09:15:13;29.02;;;16.05;;
19891;SDS011;10108;50.142;8.724;2024-03-08T09:17:41;30.17;;;16.63;;
19891;SDS011;10108;50.142;8.724;2024-03-08T09:20:09;28.02;;;15.30;;
19891;SDS011;10108;50.142;8.724;2024-03-08T09:22:36;31.30;;;15.95;;
19891;SDS011;10108;50.142;8.724;2024-03-08T09:25:03;26.95;;;14.95;;
19891;SDS011;10108;50.142;8.724;2024-03-08T09:27:31;27.52;;;14.95;;
19891;SDS011;10108;50.142;8.724;2024-03-08T09:29:57;29.00;;;14.57;;
19891;SDS011;10108;50.142;8.724;2024-03-08T09:32:23;28.48;;;14.38;;
19891;SDS011;10108;50.142;8.724;2024-03-08T09:34:50;25.95;;;13.68;;
19891;SDS011;10108;50.142;8.724;2024-03-08T09:37:16;24.80;;;13.43;;
19891;SDS011;10108;50.142;8.724;2024-03-08T09:39:43;26.90;;;13.90;;
19891;SDS011;10108;50.142;8.724;2024-03-08T09:42:10;25.15;;;14.10;;
19891;SDS011;10108;50.142;8.724;2024-03-08T09:44:44;29.48;;;13.52;;
19891;SDS011;10108;50.142;8.724;2024-03-08T09:47:13;25.23;;;13.35;;
19891;SDS011;10108;50.142;8.724;2024-03-08T09:49:40;26.83;;;13.32;;
19891;SDS011;10108;50.142;8.724;2024-03-08T09:52:10;24.40;;;12.93;;
19891;SDS011;10108;50.142;8.724;2024-03-08T09:54:38;23.88;;;12.52;;
19891;SDS011;10108;50.142;8.724;2024-03-08T09:57:05;26.08;;;13.80;;
19891;SDS011;10108;50.142;8.724;2024-03-08T09:59:33;26.02;;;12.70;;
19891;SDS011;10108;50.142;8.724;2024-03-08T10:02:03;26.23;;;12.70;;
19891;SDS011;10108;50.142;8.724;2024-03-08T10:04:30;26.73;;;13.45;;
19891;SDS011;10108;50.142;8.724;2024-03-08T10:07:00;25.63;;;13.50;;
19891;SDS011;10108;50.142;8.724;2024-03-08T10:09:27;25.33;;;13.10;;
19891;SDS011;10108;50.142;8.724;2024-03-08T10:11:55;24.00;;;13.25;;
19891;SDS011;10108;50.142;8.724;2024-03-08T10:14:23;24.60;;;12.73;;
19891;SDS011;10108;50.142;8.724;2024-03-08T10:16:52;25.20;;;12.75;;
19891;SDS011;10108;50.142;8.724;2024-03-08T10:19:19;22.48;;;12.68;;
19891;SDS011;10108;50.142;8.724;2024-03-08T10:21:49;23.80;;;12.60;;
19891;SDS011;10108;50.142;8.724;2024-03-08T10:24:17;25.63;;;13.32;;
19891;SDS011;10108;50.142;8.724;2024-03-08T10:26:44;22.40;;;12.02;;
19891;SDS011;10108;50.142;8.724;2024-03-08T10:29:10;24.65;;;12.85;;
19891;SDS011;10108;50.142;8.724;2024-03-08T10:31:44;25.13;;;12.60;;
19891;SDS011;10108;50.142;8.724;2024-03-08T10:34:10;25.50;;;13.15;;
19891;SDS011;10108;50.142;8.724;2024-03-08T10:36:37;23.88;;;12.25;;
19891;SDS011;10108;50.142;8.724;2024-03-08T10:39:07;22.50;;;12.43;;
19891;SDS011;10108;50.142;8.724;2024-03-08T10:41:57;25.50;;;12.65;;
19891;SDS011;10108;50.142;8.724;2024-03-08T10:47:00;21.85;;;11.60;;
19891;SDS011;10108;50.142;8.724;2024-03-08T10:49:46;21.88;;;12.00;;
19891;SDS011;10108;50.142;8.724;2024-03-08T10:52:29;25.33;;;13.07;;
19891;SDS011;10108;50.142;8.724;2024-03-08T10:54:57;25.40;;;12.20;;
19891;SDS011;10108;50.142;8.724;2024-03-08T10:57:25;22.38;;;11.70;;
19891;SDS011;10108;50.142;8.724;2024-03-08T10:59:53;20.58;;;11.13;;
19891;SDS011;10108;50.142;8.724;2024-03-08T11:02:20;24.17;;;12.70;;
19891;SDS011;10108;50.142;8.724;2024-03-08T11:04:48;26.17;;;12.25;;
19891;SDS011;10108;50.142;8.724;2024-03-08T11:07:15;23.58;;;11.70;;
19891;SDS011;10108;50.142;8.724;2024-03-08T11:09:47;21.77;;;11.63;;
19891;SDS011;10108;50.142;8.724;2024-03-08T11:14:48;21.92;;;11.18;;
19891;SDS011;10108;50.142;8.724;2024-03-08T11:19:57;25.80;;;11.82;;
19891;SDS011;10108;50.142;8.724;2024-03-08T11:22:34;23.13;;;11.00;;
19891;SDS011;10108;50.142;8.724;2024-03-08T11:25:03;20.52;;;11.13;;
19891;SDS011;10108;50.142;8.724;2024-03-08T11:27:35;20.55;;;11.25;;
19891;SDS011;10108;50.142;8.724;2024-03-08T11:30:03;22.88;;;11.55;;
19891;SDS011;10108;50.142;8.724;2024-03-08T11:32:43;21.17;;;11.50;;
19891;SDS011;10108;50.142;8.724;2024-03-08T11:35:22;19.50;;;11.13;;
19891;SDS011;10108;50.142;8.724;2024-03-08T11:37:51;22.40;;;11.70;;
19891;SDS011;10108;50.142;8.724;2024-03-08T11:40:17;19.38;;;10.52;;
19891;SDS011;10108;50.142;8.724;2024-03-08T11:42:45;18.42;;;9.73;;
19891;SDS011;10108;50.142;8.724;2024-03-08T11:45:17;20.00;;;9.98;;
19891;SDS011;10108;50.142;8.724;2024-03-08T11:47:47;20.30;;;10.82;;
19891;SDS011;10108;50.142;8.724;2024-03-08T11:50:13;22.50;;;11.95;;
19891;SDS011;10108;50.142;8.724;2024-03-08T11:52:43;22.08;;;11.43;;
19891;SDS011;10108;50.142;8.724;2024-03-08T11:55:10;20.40;;;11.10;;
19891;SDS011;10108;50.142;8.724;2024-03-08T11:57:38;21.77;;;11.27;;
19891;SDS011;10108;50.142;8.724;2024-03-08T12:00:05;20.65;;;11.43;;
19891;SDS011;10108;50.142;8.724;2024-03-08T12:02:33;21.23;;;11.77;;
19891;SDS011;10108;50.142;8.724;2024-03-08T12:05:08;20.80;;;11.30;;
19891;SDS011;10108;50.142;8.724;2024-03-08T12:07:38;20.17;;;10.98;;
19891;SDS011;10108;50.142;8.724;2024-03-08T12:10:14;22.33;;;11.65;;
19891;SDS011;10108;50.142;8.724;2024-03-08T12:12:45;20.65;;;11.60;;
19891;SDS011;10108;50.142;8.724;2024-03-08T12:15:14;22.85;;;11.73;;
19891;SDS011;10108;50.142;8.724;2024-03-08T12:17:41;22.05;;;11.95;;
19891;SDS011;10108;50.142;8.724;2024-03-08T12:20:11;20.15;;;11.32;;
19891;SDS011;10108;50.142;8.724;2024-03-08T12:22:42;26.92;;;11.93;;
19891;SDS011;10108;50.142;8.724;2024-03-08T12:25:11;22.48;;;12.05;;
19891;SDS011;10108;50.142;8.724;2024-03-08T12:27:41;23.60;;;12.05;;
19891;SDS011;10108;50.142;8.724;2024-03-08T12:30:24;23.15;;;12.18;;
19891;SDS011;10108;50.142;8.724;2024-03-08T12:35:23;23.05;;;11.70;;
19891;SDS011;10108;50.142;8.724;2024-03-08T12:37:54;22.10;;;11.60;;
19891;SDS011;10108;50.142;8.724;2024-03-08T12:40:25;23.70;;;12.70;;
19891;SDS011;10108;50.142;8.724;2024-03-08T12:42:57;24.17;;;13.23;;
19891;SDS011;10108;50.142;8.724;2024-03-08T12:45:24;26.08;;;13.13;;
19891;SDS011;10108;50.142;8.724;2024-03-08T12:47:51;23.50;;;13.38;;
19891;SDS011;10108;50.142;8.724;2024-03-08T12:50:22;25.15;;;13.70;;
19891;SDS011;10108;50.142;8.724;2024-03-08T12:52:50;25.00;;;12.32;;
19891;SDS011;10108;50.142;8.724;2024-03-08T12:55:20;24.30;;;13.15;;
19891;SDS011;10108;50.142;8.724;2024-03-08T12:57:46;24.98;;;13.50;;
19891;SDS011;10108;50.142;8.724;2024-03-08T13:00:14;24.35;;;12.73;;
19891;SDS011;10108;50.142;8.724;2024-03-08T13:02:50;24.33;;;12.52;;
19891;SDS011;10108;50.142;8.724;2024-03-08T13:05:17;23.92;;;12.90;;
19891;SDS011;10108;50.142;8.724;2024-03-08T13:07:43;24.15;;;13.45;;
19891;SDS011;10108;50.142;8.724;2024-03-08T13:10:13;25.55;;;13.15;;
19891;SDS011;10108;50.142;8.724;2024-03-08T13:12:42;23.15;;;12.98;;
19891;SDS011;10108;50.142;8.724;2024-03-08T13:15:09;26.40;;;14.00;;
19891;SDS011;10108;50.142;8.724;2024-03-08T13:17:46;28.25;;;13.43;;
19891;SDS011;10108;50.142;8.724;2024-03-08T13:20:14;24.63;;;12.40;;
19891;SDS011;10108;50.142;8.724;2024-03-08T13:22:45;24.02;;;12.75;;
19891;SDS011;10108;50.142;8.724;2024-03-08T13:25:12;24.25;;;12.73;;
19891;SDS011;10108;50.142;8.724;2024-03-08T13:27:40;25.50;;;13.52;;
19891;SDS011;10108;50.142;8.724;2024-03-08T13:30:08;24.83;;;12.35;;
19891;SDS011;10108;50.142;8.724;2024-03-08T13:32:41;24.23;;;13.55;;
19891;SDS011;10108;50.142;8.724;2024-03-08T13:35:10;25.77;;;13.68;;
19891;SDS011;10108;50.142;8.724;2024-03-08T13:37:40;26.67;;;13.05;;
19891;SDS011;10108;50.142;8.724;2024-03-08T13:40:09;30.08;;;13.75;;
19891;SDS011;10108;50.142;8.724;2024-03-08T13:42:40;25.50;;;13.77;;
19891;SDS011;10108;50.142;8.724;2024-03-08T13:45:09;26.05;;;13.65;;
19891;SDS011;10108;50.142;8.724;2024-03-08T13:47:40;24.65;;;13.75;;
19891;SDS011;10108;50.142;8.724;2024-03-08T13:50:10;23.55;;;12.57;;
19891;SDS011;10108;50.142;8.724;2024-03-08T13:52:47;25.65;;;13.63;;
19891;SDS011;10108;50.142;8.724;2024-03-08T13:55:17;26.95;;;13.65;;
19891;SDS011;10108;50.142;8.724;2024-03-08T13:57:44;25.30;;;13.27;;
19891;SDS011;10108;50.142;8.724;2024-03-08T14:00:11;24.80;;;13.25;;
19891;SDS011;10108;50.142;8.724;2024-03-08T14:02:41;24.98;;;13.00;;
19891;SDS011;10108;50.142;8.724;2024-03-08T14:05:07;24.70;;;13.07;;
19891;SDS011;10108;50.142;8.724;2024-03-08T14:07:35;24.15;;;13.10;;
19891;SDS011;10108;50.142;8.724;2024-03-08T14:10:01;23.58;;;12.93;;
19891;SDS011;10108;50.142;8.724;2024-03-08T14:12:28;25.83;;;13.32;;
19891;SDS011;10108;50.142;8.724;2024-03-08T14:14:55;27.30;;;13.55;;
19891;SDS011;10108;50.142;8.724;2024-03-08T14:17:25;25.45;;;13.27;;
19891;SDS011;10108;50.142;8.724;2024-03-08T14:19:53;26.67;;;12.85;;
19891;SDS011;10108;50.142;8.724;2024-03-08T14:22:25;24.20;;;12.63;;
19891;SDS011;10108;50.142;8.724;2024-03-08T14:24:51;25.20;;;13.02;;
19891;SDS011;10108;50.142;8.724;2024-03-08T14:27:18;23.48;;;13.18;;
19891;SDS011;10108;50.142;8.724;2024-03-08T14:29:44;25.25;;;12.80;;
19891;SDS011;10108;50.142;8.724;2024-03-08T14:32:10;25.48;;;13.30;;
19891;SDS011;10108;50.142;8.724;2024-03-08T14:34:38;25.65;;;13.02;;
19891;SDS011;10108;50.142;8.724;2024-03-08T14:37:05;22.55;;;11.77;;